Battiest, OK (74722)

5:25 PM CST on February 09, 2016 (GMT -0600)
Idabel | | Change Station
CLOSE
Current Station
Airport
Location: Idabel,
Elevation: 472 ft
Nearby Weather Stations

Elev 472 ft 33.91 °N, 94.85 °W | Updated 10 minutes ago

Clear
Clear
50 °F
Feels Like 50 °F
N
17
Wind Variable Wind from NNW
Gusts 28 mph

Today
High -- | Low -- °F
--% Chance of Precip.
Yesterday
High -- | Low -- °F
Precip. -- in
Pressure 30.21 in
Visibility 10.0 miles
Clouds Clear
Dew Point 18 °F
Humidity 28%
Rainfall 0.00 in
Snow Depth Not available.
7:11 AM 5:57 PM
New Moon, 3% visible
METAR K4O4 092315Z AUTO 33015G24KT 10SM CLR 10/M08 A3021 RMK AO2
Pressure 30.21 in
Visibility 10.0 miles
Clouds Clear
Dew Point 18 °F
Humidity 28%
Rainfall 0.00 in
Snow Depth Not available.
7:11 AM 5:57 PM
New Moon, 3% visible
METAR K4O4 092315Z AUTO 33015G24KT 10SM CLR 10/M08 A3021 RMK AO2

10-Day Weather Forecast

Almanac

Astronomy

Feb. 09, 2016 Rise Set
Actual Time
Civil Twilight
Nautical Twilight
Astronomical Twilight
Moon
Length of Visible Light
Length of Day
Tomorrow will be .
, % of the Moon is Illuminated

Today's Extremes

State Highs State Lows

Community

WunderPhotos

Upload Photos

1,891,744 photos uploaded!

WunderBlog® & News

Nearby

Air Quality

  Air Quality AQ Index Pollutant
Not available.

Snow Depth

Station Depth Elevation

Earthquake Activity

City Distance Mag. Time & Date
Minimum magnitude displayed is 2.5.

Coastal Water Temperatures

Place Temperature

Stations

Nearby Weather Stations

Station Location Temp. Windchill Dew Point Humidity Wind Precip. Elev Updated Type
                   

Watches & Warnings

There are currently no watches in effect.